createdAt,value
2024-05-09T00:02:07.477Z,67.43
2024-05-09T00:04:33.964Z,68.43
2024-05-09T00:07:00.386Z,69.99
2024-05-09T00:09:26.797Z,69.68
2024-05-09T00:11:53.340Z,69.14
2024-05-09T00:14:19.938Z,68.61
2024-05-09T00:16:46.404Z,69.74
2024-05-09T00:19:13.094Z,70.48
2024-05-09T00:21:39.656Z,70.76
2024-05-09T00:24:06.076Z,68.31
2024-05-09T00:26:32.515Z,67.17
2024-05-09T00:28:58.994Z,67.23
2024-05-09T00:31:25.484Z,67.58
2024-05-09T00:33:52.055Z,66.98
2024-05-09T00:36:18.531Z,67.42
2024-05-09T00:38:44.931Z,67.15
2024-05-09T00:41:11.369Z,67.19
2024-05-09T00:43:37.791Z,66.85
2024-05-09T00:46:04.201Z,65.90
2024-05-09T00:48:30.810Z,65.56
2024-05-09T00:50:57.358Z,67.49
2024-05-09T00:53:23.827Z,68.48
2024-05-09T00:55:50.270Z,68.45
2024-05-09T00:58:16.696Z,68.99
2024-05-09T01:00:43.280Z,69.02
2024-05-09T01:03:12.005Z,69.37
2024-05-09T01:05:40.467Z,69.89
2024-05-09T01:08:07.458Z,69.38
2024-05-09T01:10:35.476Z,69.60
2024-05-09T01:13:02.876Z,68.56
2024-05-09T01:15:29.325Z,69.22
2024-05-09T01:17:56.285Z,68.15
2024-05-09T01:20:31.728Z,67.53
2024-05-09T01:23:06.543Z,67.65
2024-05-09T01:25:33.008Z,68.33
2024-05-09T01:27:59.406Z,69.55
2024-05-09T01:30:32.922Z,68.85
2024-05-09T01:33:02.088Z,69.15
2024-05-09T01:35:28.753Z,69.74
2024-05-09T01:37:55.261Z,70.63
2024-05-09T01:40:28.660Z,70.23
2024-05-09T01:43:01.947Z,70.38
2024-05-09T01:45:28.332Z,70.80
2024-05-09T01:47:54.871Z,71.40
2024-05-09T01:50:33.047Z,71.43
2024-05-09T01:53:03.945Z,72.22
2024-05-09T01:55:30.370Z,73.31
2024-05-09T01:57:56.797Z,73.87
2024-05-09T02:00:33.719Z,73.51
2024-05-09T02:03:05.685Z,73.62
2024-05-09T02:05:32.530Z,73.82
2024-05-09T02:07:59.031Z,73.05
2024-05-09T02:10:31.959Z,72.38
2024-05-09T02:12:59.543Z,72.05
2024-05-09T02:15:25.949Z,71.97
2024-05-09T02:17:52.578Z,72.84
2024-05-09T02:20:29.618Z,72.75
2024-05-09T02:23:00.420Z,73.59
2024-05-09T02:25:26.881Z,73.72
2024-05-09T02:27:53.291Z,73.80
2024-05-09T02:30:29.875Z,72.19
2024-05-09T02:33:04.588Z,72.32
2024-05-09T02:35:31.300Z,73.20
2024-05-09T02:37:57.840Z,72.32
2024-05-09T02:40:33.206Z,72.22
2024-05-09T02:43:03.515Z,71.32
2024-05-09T02:45:29.943Z,70.89
2024-05-09T02:47:56.555Z,70.87
2024-05-09T02:50:29.587Z,70.62
2024-05-09T02:53:03.084Z,70.31
2024-05-09T02:55:29.515Z,69.31
2024-05-09T02:57:55.910Z,68.19
2024-05-09T03:00:29.457Z,68.07
2024-05-09T03:03:03.655Z,66.93
2024-05-09T03:05:30.235Z,66.52
2024-05-09T03:07:56.728Z,67.77
2024-05-09T03:10:28.338Z,67.56
2024-05-09T03:12:55.465Z,67.41
2024-05-09T03:15:22.001Z,68.30
2024-05-09T03:17:48.633Z,67.94
2024-05-09T03:20:23.185Z,67.71
2024-05-09T03:22:52.701Z,68.68
2024-05-09T03:25:20.440Z,69.77
2024-05-09T03:27:46.843Z,70.08
2024-05-09T03:30:25.618Z,70.18
2024-05-09T03:32:57.426Z,71.85
2024-05-09T03:35:24.040Z,71.96
2024-05-09T03:37:50.552Z,71.06
2024-05-09T03:40:23.388Z,71.62
2024-05-09T03:42:52.595Z,72.82
2024-05-09T03:45:19.010Z,74.75
2024-05-09T03:47:45.712Z,73.20
2024-05-09T03:50:18.425Z,72.05
2024-05-09T03:52:52.294Z,71.98
2024-05-09T03:55:18.723Z,71.93
2024-05-09T03:57:45.105Z,69.89
2024-05-09T04:00:17.887Z,69.23
2024-05-09T04:02:51.885Z,68.75
2024-05-09T04:05:18.422Z,67.91
2024-05-09T04:07:44.899Z,68.82
2024-05-09T04:10:17.364Z,68.21
2024-05-09T04:12:50.593Z,68.88
2024-05-09T04:15:16.989Z,69.17
2024-05-09T04:17:43.552Z,69.07
2024-05-09T04:20:15.167Z,69.00
2024-05-09T04:22:44.800Z,70.30
2024-05-09T04:25:11.217Z,71.50
2024-05-09T04:27:37.619Z,69.97
2024-05-09T04:30:06.154Z,69.40
2024-05-09T04:32:34.398Z,69.85
2024-05-09T04:35:00.921Z,69.47
2024-05-09T04:37:27.341Z,69.68
2024-05-09T04:39:53.734Z,71.25
2024-05-09T04:42:20.217Z,70.52
2024-05-09T04:44:46.608Z,69.41
2024-05-09T04:47:13.254Z,71.23
2024-05-09T04:49:39.768Z,71.43
2024-05-09T04:52:06.200Z,72.28
2024-05-09T04:54:36.291Z,70.64
2024-05-09T04:57:03.230Z,69.91
2024-05-09T04:59:29.744Z,70.41
2024-05-09T05:01:56.311Z,69.67
2024-05-09T05:04:22.856Z,68.58
2024-05-09T05:06:49.273Z,67.69
2024-05-09T05:09:15.675Z,67.40
2024-05-09T05:11:42.143Z,67.00
2024-05-09T05:14:08.706Z,67.21
2024-05-09T05:16:35.112Z,66.47
2024-05-09T05:19:01.637Z,65.50
2024-05-09T05:21:28.078Z,62.12
2024-05-09T05:23:54.493Z,61.50
2024-05-09T05:26:20.912Z,60.64
2024-05-09T05:28:47.368Z,59.48
2024-05-09T05:31:13.897Z,62.35
2024-05-09T05:33:40.408Z,62.27
2024-05-09T05:36:06.881Z,63.34
2024-05-09T05:38:33.314Z,61.78
2024-05-09T05:40:59.713Z,62.08
2024-05-09T05:43:26.096Z,61.91
2024-05-09T05:45:52.489Z,63.43
2024-05-09T05:48:19.272Z,63.74
2024-05-09T05:50:46.003Z,63.38
2024-05-09T05:53:12.663Z,61.87
2024-05-09T05:55:39.430Z,61.69
2024-05-09T05:58:05.949Z,62.86
2024-05-09T06:00:38.726Z,63.08
2024-05-09T06:03:06.894Z,63.02
2024-05-09T06:05:33.576Z,64.56
2024-05-09T06:08:00.249Z,64.73
2024-05-09T06:10:36.956Z,63.58
2024-05-09T06:13:06.081Z,63.54
2024-05-09T06:15:32.493Z,61.36
2024-05-09T06:17:59.400Z,63.18
2024-05-09T06:20:34.642Z,62.77
2024-05-09T06:23:03.742Z,61.17
2024-05-09T06:25:30.215Z,62.13
2024-05-09T06:27:56.650Z,64.55
2024-05-09T06:30:30.340Z,61.72
2024-05-09T06:33:04.198Z,60.83
2024-05-09T06:35:31.025Z,61.58
2024-05-09T06:37:57.622Z,60.56
2024-05-09T06:40:29.269Z,60.74
2024-05-09T06:43:00.775Z,60.94
2024-05-09T06:45:27.175Z,60.43
2024-05-09T06:47:53.827Z,58.10
2024-05-09T06:50:24.161Z,60.40
2024-05-09T06:52:54.463Z,59.50
2024-05-09T06:55:20.885Z,60.91
2024-05-09T06:57:47.306Z,63.72
2024-05-09T07:00:19.206Z,61.98
2024-05-09T07:02:53.852Z,62.03
2024-05-09T07:05:20.395Z,63.64
2024-05-09T07:07:46.938Z,59.41
2024-05-09T07:10:21.527Z,61.09
2024-05-09T07:12:51.928Z,61.30
2024-05-09T07:15:18.298Z,61.71
2024-05-09T07:17:44.749Z,58.83
2024-05-09T07:20:16.582Z,57.42
2024-05-09T07:22:49.902Z,58.72
2024-05-09T07:25:16.318Z,56.63
2024-05-09T07:27:42.720Z,57.81
2024-05-09T07:30:11.560Z,57.77
2024-05-09T07:32:38.220Z,59.75
2024-05-09T07:35:04.857Z,59.56
2024-05-09T07:37:31.291Z,59.56
2024-05-09T07:39:57.684Z,59.95
2024-05-09T07:42:24.097Z,58.79
2024-05-09T07:44:50.473Z,60.06
2024-05-09T07:48:28.959Z,59.78
2024-05-09T07:51:54.755Z,64.81
2024-05-09T07:55:24.297Z,57.27
2024-05-09T07:57:50.831Z,56.84
2024-05-09T08:00:23.549Z,58.18
2024-05-09T08:02:53.632Z,57.07
2024-05-09T08:05:20.206Z,59.30
2024-05-09T08:07:46.652Z,59.64
2024-05-09T08:10:15.476Z,61.58
2024-05-09T08:12:45.342Z,56.98
2024-05-09T08:15:11.790Z,57.54
2024-05-09T08:17:38.270Z,58.10
2024-05-09T08:20:05.718Z,56.37
2024-05-09T08:22:32.289Z,56.29
2024-05-09T08:24:58.726Z,58.46
2024-05-09T08:27:25.174Z,56.24
2024-05-09T08:29:51.596Z,56.46
2024-05-09T08:32:18.027Z,55.34
2024-05-09T08:34:44.632Z,56.13
2024-05-09T08:37:15.757Z,60.08
2024-05-09T08:39:47.957Z,57.62
2024-05-09T08:42:14.370Z,57.77
2024-05-09T08:44:40.757Z,53.29
2024-05-09T08:47:10.376Z,57.30
2024-05-09T08:49:37.801Z,53.88
2024-05-09T08:52:05.664Z,55.30
2024-05-09T08:54:32.143Z,52.77
2024-05-09T08:56:58.594Z,50.19
2024-05-09T08:59:24.992Z,52.10
2024-05-09T09:01:51.480Z,52.84
2024-05-09T09:04:18.064Z,53.86
2024-05-09T09:06:44.663Z,52.18
2024-05-09T09:09:11.128Z,56.20
2024-05-09T09:11:37.584Z,54.89
2024-05-09T09:14:03.982Z,49.56
2024-05-09T09:16:30.431Z,50.61
2024-05-09T09:18:57.057Z,54.61
2024-05-09T09:21:23.598Z,52.68
2024-05-09T09:23:49.999Z,51.88
2024-05-09T09:26:16.424Z,50.31
2024-05-09T09:28:42.835Z,52.02
2024-05-09T09:31:09.296Z,51.15
2024-05-09T09:33:36.245Z,52.10
2024-05-09T09:36:03.064Z,51.52
2024-05-09T09:38:29.462Z,47.29
2024-05-09T09:40:55.946Z,47.08
2024-05-09T09:43:22.901Z,48.80
2024-05-09T09:45:49.638Z,49.81
2024-05-09T09:48:16.150Z,49.30
2024-05-09T09:50:42.624Z,50.74
2024-05-09T09:53:09.004Z,50.19
2024-05-09T09:55:35.422Z,53.22
2024-05-09T09:58:02.929Z,51.87
2024-05-09T10:00:33.092Z,51.98
2024-05-09T10:03:00.714Z,48.85
2024-05-09T10:05:27.648Z,50.85
2024-05-09T10:07:54.233Z,48.13
2024-05-09T10:10:27.079Z,47.15
2024-05-09T10:12:58.127Z,48.28
2024-05-09T10:15:24.574Z,47.48
2024-05-09T10:17:51.065Z,50.23
2024-05-09T10:20:21.971Z,51.40
2024-05-09T10:22:51.856Z,51.59
2024-05-09T10:25:18.387Z,50.92
2024-05-09T10:27:44.866Z,53.80
2024-05-09T10:30:17.718Z,52.04
2024-05-09T10:32:48.070Z,48.47
2024-05-09T10:35:14.544Z,49.48
2024-05-09T10:37:40.941Z,52.23
2024-05-09T10:40:14.010Z,52.58
2024-05-09T10:42:43.786Z,52.38
2024-05-09T10:45:10.203Z,51.39
2024-05-09T10:47:36.642Z,52.52
2024-05-09T10:50:05.917Z,53.18
2024-05-09T10:52:34.165Z,53.82
2024-05-09T10:55:02.285Z,51.91
2024-05-09T10:57:30.278Z,47.15
2024-05-09T10:59:56.710Z,49.55
2024-05-09T11:02:23.371Z,48.95
2024-05-09T11:04:50.173Z,54.81
2024-05-09T11:07:16.678Z,50.68
2024-05-09T11:09:43.156Z,50.46
2024-05-09T11:12:09.645Z,49.16
2024-05-09T11:14:36.092Z,51.83
2024-05-09T11:17:02.552Z,47.82
2024-05-09T11:19:29.023Z,52.14
2024-05-09T11:21:55.523Z,50.15
2024-05-09T11:24:21.998Z,46.91
2024-05-09T11:26:48.399Z,49.25
2024-05-09T11:29:17.932Z,47.08
2024-05-09T11:31:45.900Z,50.75
2024-05-09T11:34:12.356Z,50.06
2024-05-09T11:36:38.902Z,49.59
2024-05-09T11:39:05.376Z,48.75
2024-05-09T11:41:31.828Z,44.78
2024-05-09T11:43:58.255Z,43.60
2024-05-09T11:46:24.725Z,46.90
2024-05-09T11:48:51.456Z,48.06
2024-05-09T11:51:18.005Z,47.08
2024-05-09T11:53:44.403Z,45.67
2024-05-09T11:56:10.843Z,50.00
2024-05-09T11:58:37.248Z,47.79
2024-05-09T12:01:03.743Z,46.89
2024-05-09T12:03:30.397Z,49.85
2024-05-09T12:05:57.136Z,48.61
2024-05-09T12:08:23.641Z,50.05
2024-05-09T12:10:50.340Z,46.43
2024-05-09T12:13:16.958Z,46.42
2024-05-09T12:15:43.410Z,45.18
2024-05-09T12:18:10.042Z,47.00
2024-05-09T12:20:39.246Z,44.69
2024-05-09T12:23:06.764Z,46.61
2024-05-09T12:25:33.273Z,46.88
2024-05-09T12:27:59.972Z,45.06
2024-05-09T12:30:35.359Z,43.14
2024-05-09T12:33:05.338Z,45.48
2024-05-09T12:35:31.966Z,46.91
2024-05-09T12:37:58.390Z,46.64
2024-05-09T12:40:34.210Z,49.36
2024-05-09T12:43:03.782Z,49.69
2024-05-09T12:45:30.243Z,49.42
2024-05-09T12:47:56.757Z,50.38
2024-05-09T12:50:29.928Z,48.67
2024-05-09T12:52:59.318Z,49.05
2024-05-09T12:55:25.712Z,49.50
2024-05-09T12:57:52.226Z,48.14
2024-05-09T13:00:24.035Z,48.25
2024-05-09T13:02:57.635Z,47.96
2024-05-09T13:05:24.473Z,46.27
2024-05-09T13:07:51.047Z,45.08
2024-05-09T13:10:25.537Z,46.89
2024-05-09T13:12:58.025Z,45.82
2024-05-09T13:15:24.463Z,46.27
2024-05-09T13:17:50.910Z,46.98
2024-05-09T13:20:26.057Z,46.71
2024-05-09T13:22:58.362Z,45.20
2024-05-09T13:25:24.763Z,47.67
2024-05-09T13:27:51.196Z,48.53
2024-05-09T13:30:26.309Z,46.49
2024-05-09T13:33:01.061Z,47.78
2024-05-09T13:35:27.564Z,47.61
2024-05-09T13:37:53.972Z,45.47
2024-05-09T13:40:29.851Z,45.88
2024-05-09T13:43:00.549Z,48.08
2024-05-09T13:45:27.014Z,46.88
2024-05-09T13:47:53.585Z,45.79
2024-05-09T13:50:28.154Z,45.36
2024-05-09T13:53:00.242Z,46.15
2024-05-09T13:55:26.666Z,45.62
2024-05-09T13:57:53.179Z,47.68
2024-05-09T14:00:31.802Z,47.68
2024-05-09T14:03:06.140Z,46.43
2024-05-09T14:05:32.682Z,47.31
2024-05-09T14:07:59.233Z,47.60
2024-05-09T14:10:29.000Z,47.29
2024-05-09T14:12:57.866Z,45.50
2024-05-09T14:15:24.324Z,45.86
2024-05-09T14:17:50.728Z,45.70
2024-05-09T14:20:27.969Z,43.77
2024-05-09T14:22:57.719Z,43.28
2024-05-09T14:25:24.264Z,44.01
2024-05-09T14:27:50.888Z,43.85
2024-05-09T14:30:22.976Z,45.47
2024-05-09T14:32:57.073Z,43.37
2024-05-09T14:35:23.561Z,45.26
2024-05-09T14:37:49.951Z,45.41
2024-05-09T14:40:30.514Z,44.02
2024-05-09T14:43:03.257Z,43.16
2024-05-09T14:45:29.825Z,42.50
2024-05-09T14:47:56.540Z,40.49
2024-05-09T14:50:28.209Z,40.78
2024-05-09T14:53:01.445Z,42.01
2024-05-09T14:55:27.867Z,43.40
2024-05-09T14:57:54.432Z,42.92
2024-05-09T15:00:28.635Z,41.18
2024-05-09T15:02:59.422Z,42.41
2024-05-09T15:05:26.011Z,42.20
2024-05-09T15:07:52.455Z,42.94
2024-05-09T15:10:26.618Z,44.25
2024-05-09T15:12:59.990Z,42.00
2024-05-09T15:15:26.734Z,41.61
2024-05-09T15:17:53.278Z,41.42
2024-05-09T15:20:27.707Z,41.40
2024-05-09T15:23:00.561Z,41.63
2024-05-09T15:25:27.009Z,38.88
2024-05-09T15:27:53.602Z,42.27
2024-05-09T15:30:28.181Z,42.46
2024-05-09T15:32:57.883Z,41.69
2024-05-09T15:35:24.426Z,40.40
2024-05-09T15:37:50.872Z,39.91
2024-05-09T15:40:26.252Z,41.60
2024-05-09T15:43:01.816Z,40.34
2024-05-09T15:45:28.306Z,40.11
2024-05-09T15:47:54.768Z,39.85
2024-05-09T15:50:28.846Z,41.30
2024-05-09T15:53:02.829Z,42.61
2024-05-09T15:55:29.220Z,41.12
2024-05-09T15:57:55.653Z,43.04
2024-05-09T16:00:29.066Z,40.52
2024-05-09T16:03:03.097Z,42.71
2024-05-09T16:05:29.699Z,41.34
2024-05-09T16:07:56.164Z,45.38
2024-05-09T16:10:26.053Z,44.09
2024-05-09T16:12:58.313Z,44.52
2024-05-09T16:15:24.733Z,47.87
2024-05-09T16:17:51.133Z,44.07
2024-05-09T16:20:29.018Z,51.35
2024-05-09T16:23:03.183Z,52.49
2024-05-09T16:25:29.581Z,53.51
2024-05-09T16:27:56.116Z,53.72
2024-05-09T16:30:31.390Z,53.76
2024-05-09T16:33:01.563Z,53.87
2024-05-09T16:35:28.164Z,53.11
2024-05-09T16:37:54.560Z,53.87
2024-05-09T16:40:29.377Z,54.01
2024-05-09T16:43:01.231Z,55.34
2024-05-09T16:45:27.791Z,55.14
2024-05-09T16:47:54.287Z,56.04
2024-05-09T16:50:28.734Z,56.21
2024-05-09T16:52:58.499Z,56.21
2024-05-09T16:55:25.003Z,56.25
2024-05-09T16:57:51.529Z,56.97
2024-05-09T17:00:26.431Z,57.04
2024-05-09T17:03:02.785Z,56.36
2024-05-09T17:05:29.336Z,56.87
2024-05-09T17:07:55.867Z,55.83
2024-05-09T17:10:29.284Z,56.82
2024-05-09T17:12:59.171Z,56.61
2024-05-09T17:15:25.565Z,56.65
2024-05-09T17:17:52.027Z,56.57
2024-05-09T17:20:28.920Z,56.65
2024-05-09T17:23:00.032Z,57.33
2024-05-09T17:25:26.559Z,58.29
2024-05-09T17:27:53.053Z,58.00
2024-05-09T17:30:28.586Z,57.40
2024-05-09T17:32:59.239Z,60.08
2024-05-09T17:35:25.689Z,59.05
2024-05-09T17:37:52.092Z,58.50
2024-05-09T17:40:27.374Z,61.08
2024-05-09T17:42:59.061Z,58.91
2024-05-09T17:45:25.470Z,58.01
2024-05-09T17:47:52.109Z,59.52
2024-05-09T17:50:26.677Z,59.03
2024-05-09T17:52:57.504Z,61.05
2024-05-09T17:55:23.928Z,59.83
2024-05-09T17:57:50.388Z,59.01
2024-05-09T18:00:24.677Z,58.91
2024-05-09T18:03:00.454Z,56.96
2024-05-09T18:05:27.018Z,57.49
2024-05-09T18:07:53.460Z,59.93
2024-05-09T18:10:25.760Z,59.64
2024-05-09T18:12:59.325Z,57.01
2024-05-09T18:15:25.763Z,58.84
2024-05-09T18:17:52.309Z,58.76
2024-05-09T18:20:28.714Z,59.27
2024-05-09T18:23:03.988Z,60.62
2024-05-09T18:25:30.413Z,58.45
2024-05-09T18:27:56.831Z,59.42
2024-05-09T18:30:28.310Z,58.58
2024-05-09T18:33:00.792Z,59.45
2024-05-09T18:35:27.367Z,60.81
2024-05-09T18:37:53.809Z,63.13
2024-05-09T18:40:27.366Z,61.29
2024-05-09T18:42:57.828Z,62.35
2024-05-09T18:45:24.255Z,60.80
2024-05-09T18:47:50.760Z,61.24
2024-05-09T18:50:24.735Z,63.22
2024-05-09T18:52:58.665Z,61.98
2024-05-09T18:55:25.055Z,62.48
2024-05-09T18:57:51.510Z,61.68
2024-05-09T19:00:30.888Z,61.95
2024-05-09T19:03:02.036Z,61.51
2024-05-09T19:05:28.734Z,61.65
2024-05-09T19:07:55.204Z,60.46
2024-05-09T19:10:22.875Z,60.62
2024-05-09T19:12:52.640Z,60.82
2024-05-09T19:15:19.069Z,61.05
2024-05-09T19:17:45.592Z,62.48
2024-05-09T19:20:24.669Z,62.24
2024-05-09T19:22:55.235Z,61.36
2024-05-09T19:25:21.656Z,61.52
2024-05-09T19:27:48.105Z,61.23
2024-05-09T19:30:21.869Z,59.46
2024-05-09T19:32:56.509Z,60.22
2024-05-09T19:35:22.952Z,60.81
2024-05-09T19:37:49.334Z,63.61
2024-05-09T19:40:24.533Z,63.45
2024-05-09T19:42:56.559Z,62.38
2024-05-09T19:45:22.963Z,62.62
2024-05-09T19:47:49.511Z,61.16
2024-05-09T19:50:22.490Z,63.18
2024-05-09T19:52:53.255Z,64.50
2024-05-09T19:55:19.683Z,66.32
2024-05-09T19:57:46.078Z,65.30
2024-05-09T20:00:17.922Z,64.79
2024-05-09T20:02:48.769Z,65.88
2024-05-09T20:05:15.417Z,63.32
2024-05-09T20:07:41.906Z,65.50
2024-05-09T20:10:16.458Z,67.97
2024-05-09T20:12:47.090Z,68.22
2024-05-09T20:15:13.508Z,67.25
2024-05-09T20:17:39.968Z,67.91
2024-05-09T20:20:09.305Z,66.31
2024-05-09T20:22:40.072Z,65.37
2024-05-09T20:25:06.595Z,65.40
2024-05-09T20:27:33.072Z,63.08
2024-05-09T20:29:59.499Z,64.85
2024-05-09T20:32:26.070Z,65.74
2024-05-09T20:34:52.578Z,64.67
2024-05-09T20:37:19.001Z,64.81
2024-05-09T20:39:45.448Z,63.66
2024-05-09T20:42:11.855Z,63.94
2024-05-09T20:44:38.260Z,64.68
2024-05-09T20:47:04.653Z,62.40
2024-05-09T20:49:31.105Z,63.62
2024-05-09T20:51:57.665Z,64.79
2024-05-09T20:54:24.063Z,65.70
2024-05-09T20:56:50.459Z,65.92
2024-05-09T20:59:16.861Z,67.17
2024-05-09T21:01:44.968Z,67.25
2024-05-09T21:04:13.012Z,67.45
2024-05-09T21:06:39.602Z,68.46
2024-05-09T21:09:06.023Z,69.12
2024-05-09T21:11:32.550Z,68.73
2024-05-09T21:13:59.018Z,68.06
2024-05-09T21:16:25.565Z,67.43
2024-05-09T21:18:52.083Z,67.69
2024-05-09T21:21:18.518Z,69.38
2024-05-09T21:23:44.921Z,71.38
2024-05-09T21:26:11.335Z,71.28
2024-05-09T21:28:37.820Z,70.17
2024-05-09T21:31:04.302Z,69.82
2024-05-09T21:33:30.891Z,69.95
2024-05-09T21:35:57.395Z,69.45
2024-05-09T21:38:23.781Z,70.97
2024-05-09T21:40:50.336Z,70.98
2024-05-09T21:43:16.909Z,71.30
2024-05-09T21:45:43.479Z,72.17
2024-05-09T21:48:09.950Z,71.56
2024-05-09T21:50:40.645Z,71.54
2024-05-09T21:53:08.657Z,70.97
2024-05-09T21:55:35.155Z,71.36
2024-05-09T21:58:01.765Z,71.34
2024-05-09T22:00:35.273Z,71.49
2024-05-09T22:03:04.460Z,72.20
2024-05-09T22:05:31.213Z,71.43
2024-05-09T22:07:57.770Z,71.48
2024-05-09T22:10:30.599Z,71.14
2024-05-09T22:13:00.625Z,72.62
2024-05-09T22:15:27.139Z,72.66
2024-05-09T22:17:53.777Z,72.84
2024-05-09T22:20:28.717Z,72.15
2024-05-09T22:23:02.024Z,72.92
2024-05-09T22:25:30.428Z,72.10
2024-05-09T22:27:57.505Z,71.86
2024-05-09T22:30:31.815Z,71.86
2024-05-09T22:33:02.852Z,71.83
2024-05-09T22:35:29.335Z,71.85
2024-05-09T22:37:55.738Z,71.33
2024-05-09T22:40:29.532Z,70.33
2024-05-09T22:43:05.150Z,69.68
2024-05-09T22:45:31.672Z,71.08
2024-05-09T22:47:58.255Z,70.86
2024-05-09T22:50:27.024Z,71.84
2024-05-09T22:52:58.723Z,72.26
2024-05-09T22:55:25.104Z,72.59
2024-05-09T22:57:51.516Z,73.14
2024-05-09T23:00:21.764Z,71.83
2024-05-09T23:02:52.613Z,70.95
2024-05-09T23:05:19.171Z,70.18
2024-05-09T23:07:45.692Z,69.09
2024-05-09T23:10:17.196Z,70.23
2024-05-09T23:12:48.097Z,68.33
2024-05-09T23:15:14.571Z,67.23
2024-05-09T23:17:41.018Z,66.36
2024-05-09T23:20:11.345Z,65.71
2024-05-09T23:22:38.172Z,65.46
2024-05-09T23:25:04.637Z,65.26
2024-05-09T23:27:31.069Z,64.04
2024-05-09T23:29:57.463Z,64.31
2024-05-09T23:32:23.927Z,65.51
2024-05-09T23:34:50.384Z,65.71
2024-05-09T23:37:16.869Z,66.05
2024-05-09T23:39:43.330Z,69.50
2024-05-09T23:42:09.736Z,69.54
2024-05-09T23:44:36.120Z,69.54
2024-05-09T23:47:02.532Z,66.79
2024-05-09T23:49:28.989Z,64.94
2024-05-09T23:51:55.487Z,63.92
2024-05-09T23:54:22.005Z,64.47
2024-05-09T23:56:48.438Z,63.54
2024-05-09T23:59:14.841Z,63.17
